sensor_id;sensor_type;location;lat;lon;timestamp;P1;durP1;ratioP1;P2;durP2;ratioP2
52470;SDS011;38382;53.160;7.026;2022-09-13T00:01:27;15.48;;;11.00;;
52470;SDS011;38382;53.160;7.026;2022-09-13T00:03:53;18.83;;;12.88;;
52470;SDS011;38382;53.160;7.026;2022-09-13T00:07:06;15.30;;;10.80;;
52470;SDS011;38382;53.160;7.026;2022-09-13T00:09:34;19.00;;;12.93;;
52470;SDS011;38382;53.160;7.026;2022-09-13T00:18:41;17.42;;;11.93;;
52470;SDS011;38382;53.160;7.026;2022-09-13T00:21:14;15.80;;;9.77;;
52470;SDS011;38382;53.160;7.026;2022-09-13T00:23:42;18.38;;;13.05;;
52470;SDS011;38382;53.160;7.026;2022-09-13T00:27:25;19.10;;;13.88;;
52470;SDS011;38382;53.160;7.026;2022-09-13T00:30:07;13.73;;;10.73;;
52470;SDS011;38382;53.160;7.026;2022-09-13T00:32:51;13.63;;;9.05;;
52470;SDS011;38382;53.160;7.026;2022-09-13T00:35:49;12.68;;;8.98;;
52470;SDS011;38382;53.160;7.026;2022-09-13T00:38:14;18.08;;;11.48;;
52470;SDS011;38382;53.160;7.026;2022-09-13T00:40:52;15.85;;;10.13;;
52470;SDS011;38382;53.160;7.026;2022-09-13T00:46:54;10.43;;;7.90;;
52470;SDS011;38382;53.160;7.026;2022-09-13T00:52:41;18.83;;;10.55;;
52470;SDS011;38382;53.160;7.026;2022-09-13T00:55:34;21.95;;;13.75;;
52470;SDS011;38382;53.160;7.026;2022-09-13T01:01:55;16.50;;;12.13;;
52470;SDS011;38382;53.160;7.026;2022-09-13T01:19:41;17.00;;;11.13;;
52470;SDS011;38382;53.160;7.026;2022-09-13T01:56:09;14.63;;;9.90;;
52470;SDS011;38382;53.160;7.026;2022-09-13T02:20:57;14.20;;;9.82;;
52470;SDS011;38382;53.160;7.026;2022-09-13T02:24:28;11.38;;;7.68;;
52470;SDS011;38382;53.160;7.026;2022-09-13T02:34:41;11.02;;;7.07;;
52470;SDS011;38382;53.160;7.026;2022-09-13T02:37:12;8.93;;;5.88;;
52470;SDS011;38382;53.160;7.026;2022-09-13T02:39:46;10.30;;;6.80;;
52470;SDS011;38382;53.160;7.026;2022-09-13T02:56:52;10.07;;;6.50;;
52470;SDS011;38382;53.160;7.026;2022-09-13T02:59:23;10.50;;;7.78;;
52470;SDS011;38382;53.160;7.026;2022-09-13T03:02:09;7.38;;;5.35;;
52470;SDS011;38382;53.160;7.026;2022-09-13T03:05:15;13.02;;;9.13;;
52470;SDS011;38382;53.160;7.026;2022-09-13T03:07:41;10.10;;;7.30;;
52470;SDS011;38382;53.160;7.026;2022-09-13T03:10:29;9.85;;;6.82;;
52470;SDS011;38382;53.160;7.026;2022-09-13T03:31:46;14.02;;;7.93;;
52470;SDS011;38382;53.160;7.026;2022-09-13T03:34:55;16.02;;;10.13;;
52470;SDS011;38382;53.160;7.026;2022-09-13T03:41:08;16.88;;;11.52;;
52470;SDS011;38382;53.160;7.026;2022-09-13T03:44:50;19.83;;;12.38;;
52470;SDS011;38382;53.160;7.026;2022-09-13T03:47:52;13.88;;;9.15;;
52470;SDS011;38382;53.160;7.026;2022-09-13T03:53:21;17.15;;;10.43;;
52470;SDS011;38382;53.160;7.026;2022-09-13T03:59:00;13.88;;;8.82;;
52470;SDS011;38382;53.160;7.026;2022-09-13T04:01:44;12.20;;;8.82;;
52470;SDS011;38382;53.160;7.026;2022-09-13T04:04:10;12.38;;;8.02;;
52470;SDS011;38382;53.160;7.026;2022-09-13T04:07:22;11.63;;;7.10;;
52470;SDS011;38382;53.160;7.026;2022-09-13T04:10:04;13.82;;;7.90;;
52470;SDS011;38382;53.160;7.026;2022-09-13T04:15:40;11.63;;;6.63;;
52470;SDS011;38382;53.160;7.026;2022-09-13T04:39:02;5.65;;;2.80;;
52470;SDS011;38382;53.160;7.026;2022-09-13T04:42:54;6.10;;;2.70;;
52470;SDS011;38382;53.160;7.026;2022-09-13T05:00:36;3.67;;;2.20;;
52470;SDS011;38382;53.160;7.026;2022-09-13T05:03:36;3.38;;;2.10;;
52470;SDS011;38382;53.160;7.026;2022-09-13T05:21:30;3.40;;;2.20;;
52470;SDS011;38382;53.160;7.026;2022-09-13T05:48:33;5.53;;;3.05;;
52470;SDS011;38382;53.160;7.026;2022-09-13T05:55:32;6.07;;;3.13;;
52470;SDS011;38382;53.160;7.026;2022-09-13T05:58:04;5.97;;;3.28;;
52470;SDS011;38382;53.160;7.026;2022-09-13T06:10:54;8.45;;;2.78;;
52470;SDS011;38382;53.160;7.026;2022-09-13T06:37:52;5.13;;;1.60;;
52470;SDS011;38382;53.160;7.026;2022-09-13T06:41:06;5.45;;;1.85;;
52470;SDS011;38382;53.160;7.026;2022-09-13T07:29:06;6.57;;;1.65;;
52470;SDS011;38382;53.160;7.026;2022-09-13T07:32:19;7.28;;;1.70;;
52470;SDS011;38382;53.160;7.026;2022-09-13T07:35:06;9.88;;;2.35;;
52470;SDS011;38382;53.160;7.026;2022-09-13T07:42:23;6.40;;;1.77;;
52470;SDS011;38382;53.160;7.026;2022-09-13T07:56:28;3.42;;;1.55;;
52470;SDS011;38382;53.160;7.026;2022-09-13T07:58:57;4.82;;;1.48;;
52470;SDS011;38382;53.160;7.026;2022-09-13T08:06:06;5.97;;;1.58;;
52470;SDS011;38382;53.160;7.026;2022-09-13T08:08:33;6.15;;;1.40;;
52470;SDS011;38382;53.160;7.026;2022-09-13T08:11:03;5.63;;;1.40;;
52470;SDS011;38382;53.160;7.026;2022-09-13T08:13:30;5.72;;;1.70;;
52470;SDS011;38382;53.160;7.026;2022-09-13T08:16:00;6.70;;;1.40;;
52470;SDS011;38382;53.160;7.026;2022-09-13T08:18:44;8.43;;;1.38;;
52470;SDS011;38382;53.160;7.026;2022-09-13T08:21:34;4.18;;;1.50;;
52470;SDS011;38382;53.160;7.026;2022-09-13T08:24:02;4.55;;;1.20;;
52470;SDS011;38382;53.160;7.026;2022-09-13T08:26:29;5.43;;;1.38;;
52470;SDS011;38382;53.160;7.026;2022-09-13T08:28:58;4.97;;;1.20;;
52470;SDS011;38382;53.160;7.026;2022-09-13T08:31:43;5.13;;;1.50;;
52470;SDS011;38382;53.160;7.026;2022-09-13T08:34:10;5.05;;;1.30;;
52470;SDS011;38382;53.160;7.026;2022-09-13T08:36:48;5.93;;;1.10;;
52470;SDS011;38382;53.160;7.026;2022-09-13T08:39:16;6.63;;;1.30;;
52470;SDS011;38382;53.160;7.026;2022-09-13T08:42:02;5.47;;;1.80;;
52470;SDS011;38382;53.160;7.026;2022-09-13T08:44:43;7.40;;;1.52;;
52470;SDS011;38382;53.160;7.026;2022-09-13T09:01:28;6.50;;;1.48;;
52470;SDS011;38382;53.160;7.026;2022-09-13T09:06:45;4.88;;;1.60;;
52470;SDS011;38382;53.160;7.026;2022-09-13T09:09:14;8.27;;;1.40;;
52470;SDS011;38382;53.160;7.026;2022-09-13T09:15:26;4.30;;;1.10;;
52470;SDS011;38382;53.160;7.026;2022-09-13T09:20:45;5.23;;;1.10;;
52470;SDS011;38382;53.160;7.026;2022-09-13T09:23:39;5.15;;;1.40;;
52470;SDS011;38382;53.160;7.026;2022-09-13T09:26:43;7.68;;;1.42;;
52470;SDS011;38382;53.160;7.026;2022-09-13T09:29:30;5.60;;;1.10;;
52470;SDS011;38382;53.160;7.026;2022-09-13T09:38:12;4.00;;;1.20;;
52470;SDS011;38382;53.160;7.026;2022-09-13T09:44:21;6.40;;;1.10;;
52470;SDS011;38382;53.160;7.026;2022-09-13T09:49:41;3.15;;;1.13;;
52470;SDS011;38382;53.160;7.026;2022-09-13T10:00:09;6.05;;;1.40;;
52470;SDS011;38382;53.160;7.026;2022-09-13T10:02:59;6.70;;;1.20;;
52470;SDS011;38382;53.160;7.026;2022-09-13T10:06:04;5.28;;;1.10;;
52470;SDS011;38382;53.160;7.026;2022-09-13T10:09:01;5.07;;;1.33;;
52470;SDS011;38382;53.160;7.026;2022-09-13T10:14:26;7.83;;;1.30;;
52470;SDS011;38382;53.160;7.026;2022-09-13T11:00:38;5.53;;;1.27;;
52470;SDS011;38382;53.160;7.026;2022-09-13T11:57:32;5.03;;;1.10;;
52470;SDS011;38382;53.160;7.026;2022-09-13T12:00:23;6.05;;;1.10;;
52470;SDS011;38382;53.160;7.026;2022-09-13T12:08:56;3.95;;;1.33;;
52470;SDS011;38382;53.160;7.026;2022-09-13T12:11:42;6.90;;;1.50;;
52470;SDS011;38382;53.160;7.026;2022-09-13T12:17:49;4.72;;;1.27;;
52470;SDS011;38382;53.160;7.026;2022-09-13T12:20:32;5.35;;;1.50;;
52470;SDS011;38382;53.160;7.026;2022-09-13T12:23:02;6.43;;;1.40;;
52470;SDS011;38382;53.160;7.026;2022-09-13T12:31:12;5.90;;;1.30;;
52470;SDS011;38382;53.160;7.026;2022-09-13T12:33:43;7.07;;;1.20;;
52470;SDS011;38382;53.160;7.026;2022-09-13T12:39:08;5.95;;;1.20;;
52470;SDS011;38382;53.160;7.026;2022-09-13T12:45:11;5.75;;;1.27;;
52470;SDS011;38382;53.160;7.026;2022-09-13T12:55:50;3.88;;;1.23;;
52470;SDS011;38382;53.160;7.026;2022-09-13T12:58:47;5.65;;;1.20;;
52470;SDS011;38382;53.160;7.026;2022-09-13T13:01:29;5.38;;;1.40;;
52470;SDS011;38382;53.160;7.026;2022-09-13T13:07:17;3.85;;;1.20;;
52470;SDS011;38382;53.160;7.026;2022-09-13T13:09:55;5.25;;;1.38;;
52470;SDS011;38382;53.160;7.026;2022-09-13T13:22:49;4.00;;;1.23;;
52470;SDS011;38382;53.160;7.026;2022-09-13T13:25:33;5.75;;;1.45;;
52470;SDS011;38382;53.160;7.026;2022-09-13T13:31:06;5.97;;;1.50;;
52470;SDS011;38382;53.160;7.026;2022-09-13T13:39:41;8.40;;;1.40;;
52470;SDS011;38382;53.160;7.026;2022-09-13T13:42:30;3.75;;;1.10;;
52470;SDS011;38382;53.160;7.026;2022-09-13T13:47:40;5.22;;;1.38;;
52470;SDS011;38382;53.160;7.026;2022-09-13T13:52:57;4.50;;;1.15;;
52470;SDS011;38382;53.160;7.026;2022-09-13T13:55:46;5.85;;;1.40;;
52470;SDS011;38382;53.160;7.026;2022-09-13T14:01:34;8.70;;;1.77;;
52470;SDS011;38382;53.160;7.026;2022-09-13T14:11:14;7.32;;;1.27;;
52470;SDS011;38382;53.160;7.026;2022-09-13T14:18:10;6.40;;;1.42;;
52470;SDS011;38382;53.160;7.026;2022-09-13T14:51:23;5.95;;;1.30;;
52470;SDS011;38382;53.160;7.026;2022-09-13T14:58:20;5.28;;;1.20;;
52470;SDS011;38382;53.160;7.026;2022-09-13T15:01:34;4.25;;;1.30;;
52470;SDS011;38382;53.160;7.026;2022-09-13T15:05:22;6.72;;;1.30;;
52470;SDS011;38382;53.160;7.026;2022-09-13T15:16:52;6.00;;;1.17;;
52470;SDS011;38382;53.160;7.026;2022-09-13T15:19:42;4.15;;;1.23;;
52470;SDS011;38382;53.160;7.026;2022-09-13T15:22:23;4.40;;;1.25;;
52470;SDS011;38382;53.160;7.026;2022-09-13T15:27:42;5.15;;;1.10;;
52470;SDS011;38382;53.160;7.026;2022-09-13T15:53:23;5.63;;;1.15;;
52470;SDS011;38382;53.160;7.026;2022-09-13T15:55:48;4.45;;;1.20;;
52470;SDS011;38382;53.160;7.026;2022-09-13T16:03:19;5.47;;;1.10;;
52470;SDS011;38382;53.160;7.026;2022-09-13T16:08:50;3.55;;;1.13;;
52470;SDS011;38382;53.160;7.026;2022-09-13T16:11:24;5.40;;;1.08;;
52470;SDS011;38382;53.160;7.026;2022-09-13T16:13:50;5.30;;;1.20;;
52470;SDS011;38382;53.160;7.026;2022-09-13T16:19:14;4.90;;;0.98;;
52470;SDS011;38382;53.160;7.026;2022-09-13T16:21:55;5.68;;;1.00;;
52470;SDS011;38382;53.160;7.026;2022-09-13T16:27:27;4.93;;;1.35;;
52470;SDS011;38382;53.160;7.026;2022-09-13T16:29:54;6.45;;;1.30;;
52470;SDS011;38382;53.160;7.026;2022-09-13T16:32:19;3.30;;;1.20;;
52470;SDS011;38382;53.160;7.026;2022-09-13T16:34:45;6.88;;;1.08;;
52470;SDS011;38382;53.160;7.026;2022-09-13T16:49:16;5.53;;;1.38;;
52470;SDS011;38382;53.160;7.026;2022-09-13T16:52:07;6.25;;;1.10;;
52470;SDS011;38382;53.160;7.026;2022-09-13T16:58:22;5.30;;;1.02;;
52470;SDS011;38382;53.160;7.026;2022-09-13T17:00:48;3.95;;;1.00;;
52470;SDS011;38382;53.160;7.026;2022-09-13T17:10:09;4.40;;;1.33;;
52470;SDS011;38382;53.160;7.026;2022-09-13T17:13:54;4.82;;;1.23;;
52470;SDS011;38382;53.160;7.026;2022-09-13T17:16:36;4.63;;;1.15;;
52470;SDS011;38382;53.160;7.026;2022-09-13T17:19:10;6.32;;;1.33;;
52470;SDS011;38382;53.160;7.026;2022-09-13T17:26:44;3.53;;;1.10;;
52470;SDS011;38382;53.160;7.026;2022-09-13T17:29:16;46.25;;;9.15;;
52470;SDS011;38382;53.160;7.026;2022-09-13T17:31:42;9.43;;;2.63;;
52470;SDS011;38382;53.160;7.026;2022-09-13T17:34:08;11.80;;;2.92;;
52470;SDS011;38382;53.160;7.026;2022-09-13T17:36:38;5.68;;;1.25;;
52470;SDS011;38382;53.160;7.026;2022-09-13T17:39:05;15.43;;;3.75;;
52470;SDS011;38382;53.160;7.026;2022-09-13T17:41:31;6.93;;;1.40;;
52470;SDS011;38382;53.160;7.026;2022-09-13T17:43:56;12.00;;;2.50;;
52470;SDS011;38382;53.160;7.026;2022-09-13T17:46:24;11.68;;;2.13;;
52470;SDS011;38382;53.160;7.026;2022-09-13T17:48:52;7.38;;;1.48;;
52470;SDS011;38382;53.160;7.026;2022-09-13T17:51:20;8.63;;;2.10;;
52470;SDS011;38382;53.160;7.026;2022-09-13T17:53:57;6.07;;;1.83;;
52470;SDS011;38382;53.160;7.026;2022-09-13T17:56:43;6.80;;;1.92;;
52470;SDS011;38382;53.160;7.026;2022-09-13T17:59:35;5.95;;;1.65;;
52470;SDS011;38382;53.160;7.026;2022-09-13T18:02:01;7.55;;;1.70;;
52470;SDS011;38382;53.160;7.026;2022-09-13T18:04:26;9.18;;;1.25;;
52470;SDS011;38382;53.160;7.026;2022-09-13T18:06:52;5.10;;;1.60;;
52470;SDS011;38382;53.160;7.026;2022-09-13T18:09:31;7.72;;;1.40;;
52470;SDS011;38382;53.160;7.026;2022-09-13T18:12:44;8.20;;;1.40;;
52470;SDS011;38382;53.160;7.026;2022-09-13T18:15:58;3.55;;;1.27;;
52470;SDS011;38382;53.160;7.026;2022-09-13T18:24:04;5.07;;;1.20;;
52470;SDS011;38382;53.160;7.026;2022-09-13T18:26:31;3.22;;;1.17;;
52470;SDS011;38382;53.160;7.026;2022-09-13T18:29:15;4.30;;;1.00;;
52470;SDS011;38382;53.160;7.026;2022-09-13T18:31:42;4.60;;;1.10;;
52470;SDS011;38382;53.160;7.026;2022-09-13T18:34:09;5.57;;;1.20;;
52470;SDS011;38382;53.160;7.026;2022-09-13T18:36:36;7.78;;;1.15;;
52470;SDS011;38382;53.160;7.026;2022-09-13T18:39:03;6.68;;;1.40;;
52470;SDS011;38382;53.160;7.026;2022-09-13T18:41:34;4.72;;;1.40;;
52470;SDS011;38382;53.160;7.026;2022-09-13T18:44:02;3.35;;;1.17;;
52470;SDS011;38382;53.160;7.026;2022-09-13T18:46:31;4.22;;;1.30;;
52470;SDS011;38382;53.160;7.026;2022-09-13T18:48:58;3.83;;;1.27;;
52470;SDS011;38382;53.160;7.026;2022-09-13T18:51:32;5.05;;;1.50;;
52470;SDS011;38382;53.160;7.026;2022-09-13T18:54:00;3.40;;;1.20;;
52470;SDS011;38382;53.160;7.026;2022-09-13T18:56:27;3.63;;;1.10;;
52470;SDS011;38382;53.160;7.026;2022-09-13T18:58:53;3.53;;;1.10;;
52470;SDS011;38382;53.160;7.026;2022-09-13T19:01:24;4.18;;;1.30;;
52470;SDS011;38382;53.160;7.026;2022-09-13T19:04:05;6.47;;;1.40;;
52470;SDS011;38382;53.160;7.026;2022-09-13T19:06:35;4.22;;;1.10;;
52470;SDS011;38382;53.160;7.026;2022-09-13T19:09:03;2.35;;;1.02;;
52470;SDS011;38382;53.160;7.026;2022-09-13T19:11:31;3.63;;;1.17;;
52470;SDS011;38382;53.160;7.026;2022-09-13T19:14:08;4.50;;;1.00;;
52470;SDS011;38382;53.160;7.026;2022-09-13T19:16:34;2.95;;;1.10;;
52470;SDS011;38382;53.160;7.026;2022-09-13T19:19:01;6.63;;;1.35;;
52470;SDS011;38382;53.160;7.026;2022-09-13T19:21:28;3.50;;;1.20;;
52470;SDS011;38382;53.160;7.026;2022-09-13T19:23:55;3.92;;;1.20;;
52470;SDS011;38382;53.160;7.026;2022-09-13T19:26:23;3.08;;;1.10;;
52470;SDS011;38382;53.160;7.026;2022-09-13T19:28:54;4.30;;;1.30;;
52470;SDS011;38382;53.160;7.026;2022-09-13T19:31:28;4.22;;;1.60;;
52470;SDS011;38382;53.160;7.026;2022-09-13T19:33:55;4.07;;;1.10;;
52470;SDS011;38382;53.160;7.026;2022-09-13T19:36:22;4.28;;;1.30;;
52470;SDS011;38382;53.160;7.026;2022-09-13T19:38:49;5.40;;;1.13;;
52470;SDS011;38382;53.160;7.026;2022-09-13T19:41:17;3.65;;;1.13;;
52470;SDS011;38382;53.160;7.026;2022-09-13T19:43:44;5.75;;;1.02;;
52470;SDS011;38382;53.160;7.026;2022-09-13T19:46:15;5.60;;;1.20;;
52470;SDS011;38382;53.160;7.026;2022-09-13T19:48:46;4.30;;;1.23;;
52470;SDS011;38382;53.160;7.026;2022-09-13T19:51:15;7.45;;;1.30;;
52470;SDS011;38382;53.160;7.026;2022-09-13T19:53:46;2.72;;;1.10;;
52470;SDS011;38382;53.160;7.026;2022-09-13T19:56:16;3.28;;;1.08;;
52470;SDS011;38382;53.160;7.026;2022-09-13T19:58:43;3.03;;;1.10;;
52470;SDS011;38382;53.160;7.026;2022-09-13T20:01:10;4.78;;;1.15;;
52470;SDS011;38382;53.160;7.026;2022-09-13T20:03:39;3.05;;;1.23;;
52470;SDS011;38382;53.160;7.026;2022-09-13T20:06:07;4.80;;;1.17;;
52470;SDS011;38382;53.160;7.026;2022-09-13T20:08:34;6.00;;;1.33;;
52470;SDS011;38382;53.160;7.026;2022-09-13T20:11:05;3.65;;;1.40;;
52470;SDS011;38382;53.160;7.026;2022-09-13T20:13:32;4.03;;;1.30;;
52470;SDS011;38382;53.160;7.026;2022-09-13T20:15:58;4.65;;;1.33;;
52470;SDS011;38382;53.160;7.026;2022-09-13T20:18:23;7.82;;;1.80;;
52470;SDS011;38382;53.160;7.026;2022-09-13T20:20:49;2.80;;;1.30;;
52470;SDS011;38382;53.160;7.026;2022-09-13T20:23:20;4.63;;;1.25;;
52470;SDS011;38382;53.160;7.026;2022-09-13T20:25:47;4.38;;;1.10;;
52470;SDS011;38382;53.160;7.026;2022-09-13T20:28:13;5.43;;;1.40;;
52470;SDS011;38382;53.160;7.026;2022-09-13T20:30:40;4.95;;;1.30;;
52470;SDS011;38382;53.160;7.026;2022-09-13T20:33:07;4.13;;;1.30;;
52470;SDS011;38382;53.160;7.026;2022-09-13T20:35:36;2.78;;;1.10;;
52470;SDS011;38382;53.160;7.026;2022-09-13T20:38:03;7.78;;;1.30;;
52470;SDS011;38382;53.160;7.026;2022-09-13T20:40:29;5.63;;;1.40;;
52470;SDS011;38382;53.160;7.026;2022-09-13T20:42:56;3.60;;;1.10;;
52470;SDS011;38382;53.160;7.026;2022-09-13T20:45:21;4.72;;;1.45;;
52470;SDS011;38382;53.160;7.026;2022-09-13T20:47:47;7.65;;;1.70;;
52470;SDS011;38382;53.160;7.026;2022-09-13T20:53:19;4.30;;;1.63;;
52470;SDS011;38382;53.160;7.026;2022-09-13T20:55:45;4.03;;;1.38;;
52470;SDS011;38382;53.160;7.026;2022-09-13T20:58:10;4.88;;;1.20;;
52470;SDS011;38382;53.160;7.026;2022-09-13T21:00:37;5.25;;;1.70;;
52470;SDS011;38382;53.160;7.026;2022-09-13T21:03:03;7.35;;;1.45;;
52470;SDS011;38382;53.160;7.026;2022-09-13T21:05:29;4.68;;;1.80;;
52470;SDS011;38382;53.160;7.026;2022-09-13T21:07:54;4.25;;;1.63;;
52470;SDS011;38382;53.160;7.026;2022-09-13T21:10:56;4.38;;;1.40;;
52470;SDS011;38382;53.160;7.026;2022-09-13T21:13:26;4.63;;;1.40;;
52470;SDS011;38382;53.160;7.026;2022-09-13T21:15:53;3.13;;;1.20;;
52470;SDS011;38382;53.160;7.026;2022-09-13T21:18:19;3.90;;;1.17;;
52470;SDS011;38382;53.160;7.026;2022-09-13T21:20:53;4.82;;;1.63;;
52470;SDS011;38382;53.160;7.026;2022-09-13T21:23:19;4.25;;;1.60;;
52470;SDS011;38382;53.160;7.026;2022-09-13T21:25:45;3.55;;;1.30;;
52470;SDS011;38382;53.160;7.026;2022-09-13T21:28:26;4.85;;;1.63;;
52470;SDS011;38382;53.160;7.026;2022-09-13T21:31:16;6.82;;;1.40;;
52470;SDS011;38382;53.160;7.026;2022-09-13T21:33:43;5.07;;;1.83;;
52470;SDS011;38382;53.160;7.026;2022-09-13T21:36:10;5.32;;;1.20;;
52470;SDS011;38382;53.160;7.026;2022-09-13T21:38:37;5.95;;;1.67;;
52470;SDS011;38382;53.160;7.026;2022-09-13T21:41:04;3.95;;;1.50;;
52470;SDS011;38382;53.160;7.026;2022-09-13T21:43:33;5.63;;;1.50;;
52470;SDS011;38382;53.160;7.026;2022-09-13T21:46:03;4.43;;;1.50;;
52470;SDS011;38382;53.160;7.026;2022-09-13T21:48:31;3.88;;;1.60;;
52470;SDS011;38382;53.160;7.026;2022-09-13T21:51:10;4.13;;;1.67;;
52470;SDS011;38382;53.160;7.026;2022-09-13T21:53:49;5.20;;;1.50;;
52470;SDS011;38382;53.160;7.026;2022-09-13T21:56:19;6.45;;;1.73;;
52470;SDS011;38382;53.160;7.026;2022-09-13T21:58:47;4.93;;;1.65;;
52470;SDS011;38382;53.160;7.026;2022-09-13T22:01:15;6.32;;;1.50;;
52470;SDS011;38382;53.160;7.026;2022-09-13T22:03:42;6.22;;;2.97;;
52470;SDS011;38382;53.160;7.026;2022-09-13T22:06:09;5.00;;;1.52;;
52470;SDS011;38382;53.160;7.026;2022-09-13T22:08:39;6.97;;;1.80;;
52470;SDS011;38382;53.160;7.026;2022-09-13T22:11:07;5.47;;;1.83;;
52470;SDS011;38382;53.160;7.026;2022-09-13T22:13:42;4.55;;;1.95;;
52470;SDS011;38382;53.160;7.026;2022-09-13T22:16:19;5.22;;;1.60;;
52470;SDS011;38382;53.160;7.026;2022-09-13T22:18:50;8.90;;;1.83;;
52470;SDS011;38382;53.160;7.026;2022-09-13T22:21:28;5.25;;;1.70;;
52470;SDS011;38382;53.160;7.026;2022-09-13T22:24:00;5.72;;;1.83;;
52470;SDS011;38382;53.160;7.026;2022-09-13T22:26:42;4.78;;;1.38;;
52470;SDS011;38382;53.160;7.026;2022-09-13T22:30:04;5.05;;;1.75;;
52470;SDS011;38382;53.160;7.026;2022-09-13T22:33:16;6.72;;;1.90;;
52470;SDS011;38382;53.160;7.026;2022-09-13T22:35:55;4.85;;;1.88;;
52470;SDS011;38382;53.160;7.026;2022-09-13T22:38:22;3.80;;;1.63;;
52470;SDS011;38382;53.160;7.026;2022-09-13T22:40:55;6.75;;;2.00;;
52470;SDS011;38382;53.160;7.026;2022-09-13T22:43:21;4.72;;;1.88;;
52470;SDS011;38382;53.160;7.026;2022-09-13T22:45:50;3.85;;;1.80;;
52470;SDS011;38382;53.160;7.026;2022-09-13T22:48:18;5.00;;;1.70;;
52470;SDS011;38382;53.160;7.026;2022-09-13T22:50:48;3.95;;;1.52;;
52470;SDS011;38382;53.160;7.026;2022-09-13T22:53:15;3.38;;;1.50;;
52470;SDS011;38382;53.160;7.026;2022-09-13T22:55:41;3.38;;;1.98;;
52470;SDS011;38382;53.160;7.026;2022-09-13T22:58:07;5.75;;;1.92;;
52470;SDS011;38382;53.160;7.026;2022-09-13T23:00:32;7.63;;;1.60;;
52470;SDS011;38382;53.160;7.026;2022-09-13T23:02:58;7.72;;;1.80;;
52470;SDS011;38382;53.160;7.026;2022-09-13T23:05:24;3.95;;;1.58;;
52470;SDS011;38382;53.160;7.026;2022-09-13T23:07:49;2.95;;;1.50;;
52470;SDS011;38382;53.160;7.026;2022-09-13T23:10:15;5.80;;;1.63;;
52470;SDS011;38382;53.160;7.026;2022-09-13T23:12:41;7.80;;;1.80;;
52470;SDS011;38382;53.160;7.026;2022-09-13T23:15:09;5.22;;;2.50;;
52470;SDS011;38382;53.160;7.026;2022-09-13T23:20:32;8.95;;;2.28;;
52470;SDS011;38382;53.160;7.026;2022-09-13T23:23:03;4.90;;;1.67;;
52470;SDS011;38382;53.160;7.026;2022-09-13T23:25:29;3.25;;;1.58;;
52470;SDS011;38382;53.160;7.026;2022-09-13T23:27:57;3.00;;;1.50;;
52470;SDS011;38382;53.160;7.026;2022-09-13T23:30:23;5.22;;;2.17;;
52470;SDS011;38382;53.160;7.026;2022-09-13T23:32:49;3.90;;;1.45;;
52470;SDS011;38382;53.160;7.026;2022-09-13T23:35:15;4.47;;;1.85;;
52470;SDS011;38382;53.160;7.026;2022-09-13T23:37:42;4.53;;;1.63;;
52470;SDS011;38382;53.160;7.026;2022-09-13T23:40:11;7.45;;;1.92;;
52470;SDS011;38382;53.160;7.026;2022-09-13T23:42:39;3.40;;;1.70;;
52470;SDS011;38382;53.160;7.026;2022-09-13T23:45:05;6.13;;;1.73;;
52470;SDS011;38382;53.160;7.026;2022-09-13T23:47:48;6.07;;;1.90;;
52470;SDS011;38382;53.160;7.026;2022-09-13T23:50:14;3.92;;;1.77;;
52470;SDS011;38382;53.160;7.026;2022-09-13T23:52:40;4.53;;;1.60;;
52470;SDS011;38382;53.160;7.026;2022-09-13T23:55:06;4.95;;;1.80;;
52470;SDS011;38382;53.160;7.026;2022-09-13T23:57:32;5.25;;;2.03;;
52470;SDS011;38382;53.160;7.026;2022-09-13T23:59:57;8.27;;;2.05;;
